Terminal Aerodrome Forecast
Issued by NWS

Home | Current Version | Previous Version | Text Only | Print | Product List | Glossary On
Versions: 1 2 3 4 5 6 7 8 9 10 11 12 13 14 15 16
585
FTUS43 KAPX 221131
TAFPLN
TAF
KPLN 221131Z 2212/2312 24007KT P6SM FEW015 BKN090
      TEMPO 2212/2214 -RA BKN015
     FM221400 30009KT P6SM VCSH BKN020
     FM221600 31011G19KT P6SM BKN025
     FM221800 30013G22KT P6SM SCT040
     FM230100 30009KT P6SM FEW250
     FM230600 30007KT P6SM BKN040=

USA.gov is the U.S. government's official web portal to all federal, state and local government web resources and services.